sensor_id;sensor_type;location;lat;lon;timestamp;P1;durP1;ratioP1;P2;durP2;ratioP2
17967;SDS011;9109;48.050;11.696;2023-03-14T04:47:33;1.77;;;0.70;;
17967;SDS011;9109;48.050;11.696;2023-03-14T04:50:35;6.03;;;0.70;;
17967;SDS011;9109;48.050;11.696;2023-03-14T04:53:37;0.33;;;0.33;;
17967;SDS011;9109;48.050;11.696;2023-03-14T04:56:40;1.40;;;0.40;;
17967;SDS011;9109;48.050;11.696;2023-03-14T04:59:41;0.63;;;0.40;;
17967;SDS011;9109;48.050;11.696;2023-03-14T05:02:45;0.80;;;0.40;;
17967;SDS011;9109;48.050;11.696;2023-03-14T05:05:47;1.53;;;0.60;;
17967;SDS011;9109;48.050;11.696;2023-03-14T05:08:49;0.30;;;0.30;;
17967;SDS011;9109;48.050;11.696;2023-03-14T05:11:51;0.37;;;0.37;;
17967;SDS011;9109;48.050;11.696;2023-03-14T05:14:53;0.33;;;0.33;;
17967;SDS011;9109;48.050;11.696;2023-03-14T05:17:57;1.30;;;0.30;;
17967;SDS011;9109;48.050;11.696;2023-03-14T05:21:01;0.60;;;0.60;;
17967;SDS011;9109;48.050;11.696;2023-03-14T05:24:03;0.40;;;0.40;;
17967;SDS011;9109;48.050;11.696;2023-03-14T05:27:06;0.50;;;0.50;;
17967;SDS011;9109;48.050;11.696;2023-03-14T05:30:08;1.07;;;0.50;;
17967;SDS011;9109;48.050;11.696;2023-03-14T05:33:13;7.50;;;0.60;;
17967;SDS011;9109;48.050;11.696;2023-03-14T05:36:15;0.40;;;0.40;;
17967;SDS011;9109;48.050;11.696;2023-03-14T05:39:17;0.90;;;0.50;;
17967;SDS011;9109;48.050;11.696;2023-03-14T05:42:19;0.93;;;0.50;;
17967;SDS011;9109;48.050;11.696;2023-03-14T05:49:32;0.53;;;0.53;;
17967;SDS011;9109;48.050;11.696;2023-03-14T05:53:29;0.40;;;0.40;;
17967;SDS011;9109;48.050;11.696;2023-03-14T05:57:00;0.70;;;0.47;;
17967;SDS011;9109;48.050;11.696;2023-03-14T06:03:58;0.40;;;0.40;;
17967;SDS011;9109;48.050;11.696;2023-03-14T06:07:01;0.70;;;0.50;;
17967;SDS011;9109;48.050;11.696;2023-03-14T06:10:04;0.50;;;0.50;;
17967;SDS011;9109;48.050;11.696;2023-03-14T06:13:07;0.40;;;0.40;;
17967;SDS011;9109;48.050;11.696;2023-03-14T06:16:09;0.47;;;0.47;;
17967;SDS011;9109;48.050;11.696;2023-03-14T06:19:11;0.57;;;0.57;;
17967;SDS011;9109;48.050;11.696;2023-03-14T06:22:14;2.33;;;0.50;;
17967;SDS011;9109;48.050;11.696;2023-03-14T06:25:16;1.17;;;0.70;;
17967;SDS011;9109;48.050;11.696;2023-03-14T06:28:19;2.47;;;0.87;;
17967;SDS011;9109;48.050;11.696;2023-03-14T06:31:21;1.20;;;0.70;;
17967;SDS011;9109;48.050;11.696;2023-03-14T06:34:23;3.43;;;0.60;;
17967;SDS011;9109;48.050;11.696;2023-03-14T06:37:27;3.33;;;0.60;;
17967;SDS011;9109;48.050;11.696;2023-03-14T06:40:30;6.83;;;0.60;;
17967;SDS011;9109;48.050;11.696;2023-03-14T06:43:35;0.80;;;0.67;;
17967;SDS011;9109;48.050;11.696;2023-03-14T06:46:38;2.03;;;0.47;;
17967;SDS011;9109;48.050;11.696;2023-03-14T06:49:40;5.13;;;0.60;;
17967;SDS011;9109;48.050;11.696;2023-03-14T06:52:43;6.57;;;0.80;;
17967;SDS011;9109;48.050;11.696;2023-03-14T06:55:47;0.43;;;0.43;;
17967;SDS011;9109;48.050;11.696;2023-03-14T06:58:51;9.00;;;0.67;;
17967;SDS011;9109;48.050;11.696;2023-03-14T07:01:53;4.13;;;0.60;;
17967;SDS011;9109;48.050;11.696;2023-03-14T07:04:55;1.03;;;0.80;;
17967;SDS011;9109;48.050;11.696;2023-03-14T07:07:58;2.83;;;0.60;;
17967;SDS011;9109;48.050;11.696;2023-03-14T07:11:00;2.77;;;0.60;;
17967;SDS011;9109;48.050;11.696;2023-03-14T07:14:02;6.50;;;0.57;;
17967;SDS011;9109;48.050;11.696;2023-03-14T07:17:04;5.23;;;0.50;;
17967;SDS011;9109;48.050;11.696;2023-03-14T07:20:08;0.57;;;0.50;;
17967;SDS011;9109;48.050;11.696;2023-03-14T07:23:12;0.53;;;0.40;;
17967;SDS011;9109;48.050;11.696;2023-03-14T07:26:14;1.10;;;0.50;;
17967;SDS011;9109;48.050;11.696;2023-03-14T07:29:16;0.77;;;0.50;;
17967;SDS011;9109;48.050;11.696;2023-03-14T07:35:53;5.87;;;0.80;;
17967;SDS011;9109;48.050;11.696;2023-03-14T07:39:08;0.60;;;0.47;;
17967;SDS011;9109;48.050;11.696;2023-03-14T07:42:10;0.40;;;0.40;;
17967;SDS011;9109;48.050;11.696;2023-03-14T07:45:17;0.40;;;0.40;;
17967;SDS011;9109;48.050;11.696;2023-03-14T07:48:19;3.83;;;0.97;;
17967;SDS011;9109;48.050;11.696;2023-03-14T07:51:35;4.30;;;0.40;;
17967;SDS011;9109;48.050;11.696;2023-03-14T07:54:50;0.40;;;0.40;;
17967;SDS011;9109;48.050;11.696;2023-03-14T07:58:20;1.43;;;0.50;;
17967;SDS011;9109;48.050;11.696;2023-03-14T08:01:32;0.50;;;0.50;;
17967;SDS011;9109;48.050;11.696;2023-03-14T08:04:40;0.77;;;0.57;;
17967;SDS011;9109;48.050;11.696;2023-03-14T08:07:50;0.67;;;0.50;;
17967;SDS011;9109;48.050;11.696;2023-03-14T08:10:56;0.80;;;0.50;;
17967;SDS011;9109;48.050;11.696;2023-03-14T08:14:04;0.63;;;0.40;;
17967;SDS011;9109;48.050;11.696;2023-03-14T08:17:06;0.63;;;0.60;;
17967;SDS011;9109;48.050;11.696;2023-03-14T08:20:09;0.77;;;0.50;;
17967;SDS011;9109;48.050;11.696;2023-03-14T08:23:13;13.60;;;1.03;;
17967;SDS011;9109;48.050;11.696;2023-03-14T08:26:16;0.57;;;0.57;;
17967;SDS011;9109;48.050;11.696;2023-03-14T08:29:18;0.37;;;0.37;;
17967;SDS011;9109;48.050;11.696;2023-03-14T08:32:20;3.60;;;0.50;;
17967;SDS011;9109;48.050;11.696;2023-03-14T08:35:23;3.80;;;0.50;;
17967;SDS011;9109;48.050;11.696;2023-03-14T08:38:26;0.90;;;0.50;;
17967;SDS011;9109;48.050;11.696;2023-03-14T08:41:30;0.60;;;0.47;;
17967;SDS011;9109;48.050;11.696;2023-03-14T08:44:32;0.60;;;0.50;;
17967;SDS011;9109;48.050;11.696;2023-03-14T08:47:34;0.50;;;0.50;;
17967;SDS011;9109;48.050;11.696;2023-03-14T08:50:36;1.63;;;0.50;;
17967;SDS011;9109;48.050;11.696;2023-03-14T08:53:38;0.80;;;0.60;;
17967;SDS011;9109;48.050;11.696;2023-03-14T08:56:41;3.50;;;0.60;;
17967;SDS011;9109;48.050;11.696;2023-03-14T08:59:43;1.60;;;0.83;;
17967;SDS011;9109;48.050;11.696;2023-03-14T09:02:45;1.97;;;0.50;;
17967;SDS011;9109;48.050;11.696;2023-03-14T09:05:47;1.80;;;0.60;;
17967;SDS011;9109;48.050;11.696;2023-03-14T09:08:49;2.80;;;0.70;;
17967;SDS011;9109;48.050;11.696;2023-03-14T09:11:52;0.77;;;0.50;;
17967;SDS011;9109;48.050;11.696;2023-03-14T09:14:54;2.30;;;0.63;;
17967;SDS011;9109;48.050;11.696;2023-03-14T09:17:56;0.87;;;0.70;;
17967;SDS011;9109;48.050;11.696;2023-03-14T09:20:59;2.10;;;0.50;;
17967;SDS011;9109;48.050;11.696;2023-03-14T09:24:01;1.10;;;0.60;;
17967;SDS011;9109;48.050;11.696;2023-03-14T09:27:04;1.63;;;0.67;;
17967;SDS011;9109;48.050;11.696;2023-03-14T09:30:09;2.33;;;1.00;;
17967;SDS011;9109;48.050;11.696;2023-03-14T09:33:11;5.50;;;0.90;;
17967;SDS011;9109;48.050;11.696;2023-03-14T09:36:13;1.97;;;0.80;;
17967;SDS011;9109;48.050;11.696;2023-03-14T09:39:15;2.67;;;1.47;;
17967;SDS011;9109;48.050;11.696;2023-03-14T09:42:19;2.47;;;1.20;;
17967;SDS011;9109;48.050;11.696;2023-03-14T09:45:25;2.23;;;0.67;;
17967;SDS011;9109;48.050;11.696;2023-03-14T09:48:31;0.80;;;0.70;;
17967;SDS011;9109;48.050;11.696;2023-03-14T09:51:46;8.63;;;1.60;;
17967;SDS011;9109;48.050;11.696;2023-03-14T09:55:10;5.90;;;1.77;;
17967;SDS011;9109;48.050;11.696;2023-03-14T09:58:26;1.57;;;0.90;;
17967;SDS011;9109;48.050;11.696;2023-03-14T10:01:33;1.77;;;0.80;;
17967;SDS011;9109;48.050;11.696;2023-03-14T10:04:45;1.50;;;0.80;;
17967;SDS011;9109;48.050;11.696;2023-03-14T10:07:50;0.70;;;0.60;;
17967;SDS011;9109;48.050;11.696;2023-03-14T10:11:10;3.07;;;1.13;;
17967;SDS011;9109;48.050;11.696;2023-03-14T10:14:17;5.83;;;0.97;;
17967;SDS011;9109;48.050;11.696;2023-03-14T10:17:38;9.90;;;1.47;;
17967;SDS011;9109;48.050;11.696;2023-03-14T10:20:42;14.50;;;1.57;;
17967;SDS011;9109;48.050;11.696;2023-03-14T10:23:45;12.43;;;1.53;;
17967;SDS011;9109;48.050;11.696;2023-03-14T10:26:48;12.40;;;2.03;;
17967;SDS011;9109;48.050;11.696;2023-03-14T10:29:53;2.53;;;0.80;;
17967;SDS011;9109;48.050;11.696;2023-03-14T10:32:56;2.20;;;0.70;;
17967;SDS011;9109;48.050;11.696;2023-03-14T10:35:59;3.20;;;0.70;;
17967;SDS011;9109;48.050;11.696;2023-03-14T10:39:15;2.60;;;0.97;;
17967;SDS011;9109;48.050;11.696;2023-03-14T10:42:31;11.93;;;1.07;;
17967;SDS011;9109;48.050;11.696;2023-03-14T10:45:38;3.30;;;0.77;;
17967;SDS011;9109;48.050;11.696;2023-03-14T10:48:41;1.23;;;0.87;;
17967;SDS011;9109;48.050;11.696;2023-03-14T10:51:43;1.43;;;0.80;;
17967;SDS011;9109;48.050;11.696;2023-03-14T10:54:47;0.60;;;0.50;;
17967;SDS011;9109;48.050;11.696;2023-03-14T10:57:49;1.87;;;0.80;;
17967;SDS011;9109;48.050;11.696;2023-03-14T11:00:56;1.37;;;0.60;;
17967;SDS011;9109;48.050;11.696;2023-03-14T11:04:06;1.53;;;0.60;;
17967;SDS011;9109;48.050;11.696;2023-03-14T11:07:20;0.50;;;0.50;;
17967;SDS011;9109;48.050;11.696;2023-03-14T11:10:31;2.30;;;0.57;;
17967;SDS011;9109;48.050;11.696;2023-03-14T11:13:34;2.10;;;0.50;;
17967;SDS011;9109;48.050;11.696;2023-03-14T11:16:44;1.17;;;0.60;;
17967;SDS011;9109;48.050;11.696;2023-03-14T11:19:55;3.40;;;0.70;;
17967;SDS011;9109;48.050;11.696;2023-03-14T11:23:08;2.07;;;0.67;;
17967;SDS011;9109;48.050;11.696;2023-03-14T11:26:19;2.03;;;0.50;;
17967;SDS011;9109;48.050;11.696;2023-03-14T11:29:28;0.50;;;0.43;;
17967;SDS011;9109;48.050;11.696;2023-03-14T11:32:41;1.63;;;0.60;;
17967;SDS011;9109;48.050;11.696;2023-03-14T11:35:47;0.50;;;0.50;;
17967;SDS011;9109;48.050;11.696;2023-03-14T11:38:55;0.50;;;0.50;;
17967;SDS011;9109;48.050;11.696;2023-03-14T11:41:58;0.77;;;0.43;;
17967;SDS011;9109;48.050;11.696;2023-03-14T11:45:02;4.30;;;0.70;;
17967;SDS011;9109;48.050;11.696;2023-03-14T11:48:13;0.40;;;0.40;;
17967;SDS011;9109;48.050;11.696;2023-03-14T11:51:21;1.43;;;0.60;;
17967;SDS011;9109;48.050;11.696;2023-03-14T11:54:31;0.40;;;0.40;;
17967;SDS011;9109;48.050;11.696;2023-03-14T11:57:38;0.40;;;0.40;;
17967;SDS011;9109;48.050;11.696;2023-03-14T12:00:41;0.83;;;0.40;;
17967;SDS011;9109;48.050;11.696;2023-03-14T12:03:46;0.40;;;0.40;;
17967;SDS011;9109;48.050;11.696;2023-03-14T12:06:56;0.40;;;0.40;;
17967;SDS011;9109;48.050;11.696;2023-03-14T12:10:01;0.60;;;0.43;;
17967;SDS011;9109;48.050;11.696;2023-03-14T12:13:04;0.40;;;0.40;;
17967;SDS011;9109;48.050;11.696;2023-03-14T12:19:34;0.30;;;0.30;;
17967;SDS011;9109;48.050;11.696;2023-03-14T12:22:41;0.60;;;0.40;;
17967;SDS011;9109;48.050;11.696;2023-03-14T12:25:44;0.40;;;0.40;;
17967;SDS011;9109;48.050;11.696;2023-03-14T12:28:49;0.40;;;0.40;;
17967;SDS011;9109;48.050;11.696;2023-03-14T12:32:21;1.03;;;0.43;;
17967;SDS011;9109;48.050;11.696;2023-03-14T12:35:36;0.30;;;0.30;;
17967;SDS011;9109;48.050;11.696;2023-03-14T12:38:46;0.40;;;0.40;;
17967;SDS011;9109;48.050;11.696;2023-03-14T12:42:14;0.40;;;0.40;;
17967;SDS011;9109;48.050;11.696;2023-03-14T12:45:36;0.53;;;0.20;;
17967;SDS011;9109;48.050;11.696;2023-03-14T12:48:38;0.40;;;0.40;;
17967;SDS011;9109;48.050;11.696;2023-03-14T12:51:42;0.55;;;0.40;;
17967;SDS011;9109;48.050;11.696;2023-03-14T12:54:45;0.80;;;0.40;;
17967;SDS011;9109;48.050;11.696;2023-03-14T12:57:53;0.40;;;0.40;;
17967;SDS011;9109;48.050;11.696;2023-03-14T13:01:00;1.85;;;0.50;;
17967;SDS011;9109;48.050;11.696;2023-03-14T13:04:03;0.40;;;0.40;;
17967;SDS011;9109;48.050;11.696;2023-03-14T13:07:12;0.40;;;0.40;;
17967;SDS011;9109;48.050;11.696;2023-03-14T13:10:29;0.30;;;0.30;;
17967;SDS011;9109;48.050;11.696;2023-03-14T13:13:45;0.30;;;0.30;;
17967;SDS011;9109;48.050;11.696;2023-03-14T13:16:49;0.40;;;0.40;;
17967;SDS011;9109;48.050;11.696;2023-03-14T13:19:51;0.33;;;0.33;;
17967;SDS011;9109;48.050;11.696;2023-03-14T13:22:57;0.53;;;0.40;;
17967;SDS011;9109;48.050;11.696;2023-03-14T13:26:00;0.40;;;0.40;;
17967;SDS011;9109;48.050;11.696;2023-03-14T13:29:08;0.30;;;0.30;;
17967;SDS011;9109;48.050;11.696;2023-03-14T13:32:16;0.70;;;0.50;;
17967;SDS011;9109;48.050;11.696;2023-03-14T13:35:23;0.87;;;0.40;;
17967;SDS011;9109;48.050;11.696;2023-03-14T13:38:28;2.10;;;0.43;;
17967;SDS011;9109;48.050;11.696;2023-03-14T13:41:31;0.40;;;0.40;;
17967;SDS011;9109;48.050;11.696;2023-03-14T13:44:34;0.50;;;0.50;;
17967;SDS011;9109;48.050;11.696;2023-03-14T13:47:38;0.33;;;0.33;;
17967;SDS011;9109;48.050;11.696;2023-03-14T13:50:49;0.33;;;0.33;;
17967;SDS011;9109;48.050;11.696;2023-03-14T13:53:55;0.40;;;0.40;;
17967;SDS011;9109;48.050;11.696;2023-03-14T13:57:01;2.67;;;0.40;;
17967;SDS011;9109;48.050;11.696;2023-03-14T14:00:05;0.40;;;0.40;;
17967;SDS011;9109;48.050;11.696;2023-03-14T14:03:18;0.40;;;0.40;;
17967;SDS011;9109;48.050;11.696;2023-03-14T14:06:27;0.30;;;0.30;;
17967;SDS011;9109;48.050;11.696;2023-03-14T14:09:35;0.40;;;0.40;;
17967;SDS011;9109;48.050;11.696;2023-03-14T14:12:40;0.30;;;0.30;;
17967;SDS011;9109;48.050;11.696;2023-03-14T14:15:51;0.40;;;0.40;;
17967;SDS011;9109;48.050;11.696;2023-03-14T14:18:54;0.40;;;0.40;;
17967;SDS011;9109;48.050;11.696;2023-03-14T14:21:57;2.87;;;0.37;;
17967;SDS011;9109;48.050;11.696;2023-03-14T14:25:01;0.40;;;0.40;;
17967;SDS011;9109;48.050;11.696;2023-03-14T14:28:14;0.30;;;0.30;;
17967;SDS011;9109;48.050;11.696;2023-03-14T14:31:17;2.70;;;0.50;;
17967;SDS011;9109;48.050;11.696;2023-03-14T14:34:22;1.83;;;0.60;;
17967;SDS011;9109;48.050;11.696;2023-03-14T14:37:26;1.43;;;0.60;;
17967;SDS011;9109;48.050;11.696;2023-03-14T14:40:31;2.83;;;0.50;;
17967;SDS011;9109;48.050;11.696;2023-03-14T14:43:34;3.30;;;0.40;;
17967;SDS011;9109;48.050;11.696;2023-03-14T14:46:39;1.07;;;0.40;;
17967;SDS011;9109;48.050;11.696;2023-03-14T14:49:43;0.60;;;0.50;;
17967;SDS011;9109;48.050;11.696;2023-03-14T14:52:45;0.47;;;0.47;;
17967;SDS011;9109;48.050;11.696;2023-03-14T14:55:50;0.90;;;0.50;;
17967;SDS011;9109;48.050;11.696;2023-03-14T14:58:55;3.87;;;0.60;;
17967;SDS011;9109;48.050;11.696;2023-03-14T15:02:00;0.30;;;0.30;;
17967;SDS011;9109;48.050;11.696;2023-03-14T15:05:03;1.23;;;0.43;;
17967;SDS011;9109;48.050;11.696;2023-03-14T15:08:08;1.17;;;0.40;;
17967;SDS011;9109;48.050;11.696;2023-03-14T15:11:13;1.03;;;0.60;;
17967;SDS011;9109;48.050;11.696;2023-03-14T15:14:18;0.40;;;0.40;;
17967;SDS011;9109;48.050;11.696;2023-03-14T15:17:20;0.70;;;0.50;;
17967;SDS011;9109;48.050;11.696;2023-03-14T15:20:22;2.47;;;0.60;;
17967;SDS011;9109;48.050;11.696;2023-03-14T15:23:24;1.23;;;0.80;;
17967;SDS011;9109;48.050;11.696;2023-03-14T15:26:28;2.10;;;0.80;;
17967;SDS011;9109;48.050;11.696;2023-03-14T15:29:30;1.60;;;0.40;;
17967;SDS011;9109;48.050;11.696;2023-03-14T15:32:37;0.77;;;0.50;;
17967;SDS011;9109;48.050;11.696;2023-03-14T15:35:39;0.40;;;0.40;;
17967;SDS011;9109;48.050;11.696;2023-03-14T15:38:42;1.10;;;0.47;;
17967;SDS011;9109;48.050;11.696;2023-03-14T15:41:45;0.43;;;0.40;;
17967;SDS011;9109;48.050;11.696;2023-03-14T15:44:47;0.63;;;0.47;;
17967;SDS011;9109;48.050;11.696;2023-03-14T15:47:49;4.53;;;0.70;;
17967;SDS011;9109;48.050;11.696;2023-03-14T15:50:51;0.87;;;0.50;;
17967;SDS011;9109;48.050;11.696;2023-03-14T15:53:53;0.40;;;0.40;;
17967;SDS011;9109;48.050;11.696;2023-03-14T15:56:56;1.50;;;0.87;;
17967;SDS011;9109;48.050;11.696;2023-03-14T15:59:58;0.50;;;0.50;;
17967;SDS011;9109;48.050;11.696;2023-03-14T16:03:00;0.77;;;0.60;;
17967;SDS011;9109;48.050;11.696;2023-03-14T16:06:02;0.80;;;0.60;;
17967;SDS011;9109;48.050;11.696;2023-03-14T16:09:04;0.50;;;0.50;;
17967;SDS011;9109;48.050;11.696;2023-03-14T16:12:08;1.17;;;0.60;;
17967;SDS011;9109;48.050;11.696;2023-03-14T16:15:10;0.60;;;0.57;;
17967;SDS011;9109;48.050;11.696;2023-03-14T16:18:12;0.70;;;0.57;;
17967;SDS011;9109;48.050;11.696;2023-03-14T16:21:14;2.50;;;0.80;;
17967;SDS011;9109;48.050;11.696;2023-03-14T16:24:17;2.33;;;0.80;;
17967;SDS011;9109;48.050;11.696;2023-03-14T16:27:20;1.07;;;0.60;;
17967;SDS011;9109;48.050;11.696;2023-03-14T16:30:24;3.87;;;0.80;;
17967;SDS011;9109;48.050;11.696;2023-03-14T16:33:26;1.10;;;0.63;;
17967;SDS011;9109;48.050;11.696;2023-03-14T16:36:27;2.17;;;0.60;;
17967;SDS011;9109;48.050;11.696;2023-03-14T16:39:29;0.90;;;0.60;;
17967;SDS011;9109;48.050;11.696;2023-03-14T16:42:33;0.67;;;0.57;;
17967;SDS011;9109;48.050;11.696;2023-03-14T16:45:35;7.47;;;0.70;;
17967;SDS011;9109;48.050;11.696;2023-03-14T16:48:38;1.97;;;0.73;;
17967;SDS011;9109;48.050;11.696;2023-03-14T16:51:40;3.17;;;0.90;;
17967;SDS011;9109;48.050;11.696;2023-03-14T16:54:42;1.10;;;0.80;;
17967;SDS011;9109;48.050;11.696;2023-03-14T16:57:45;1.67;;;0.70;;
17967;SDS011;9109;48.050;11.696;2023-03-14T17:00:47;6.60;;;0.77;;
17967;SDS011;9109;48.050;11.696;2023-03-14T17:04:13;1.27;;;0.70;;
17967;SDS011;9109;48.050;11.696;2023-03-14T17:07:14;1.47;;;0.80;;
17967;SDS011;9109;48.050;11.696;2023-03-14T17:10:17;3.60;;;0.73;;
17967;SDS011;9109;48.050;11.696;2023-03-14T17:13:20;2.17;;;0.87;;
17967;SDS011;9109;48.050;11.696;2023-03-14T17:16:24;1.63;;;0.70;;
17967;SDS011;9109;48.050;11.696;2023-03-14T17:19:26;1.73;;;0.67;;
17967;SDS011;9109;48.050;11.696;2023-03-14T17:22:28;3.47;;;0.80;;
17967;SDS011;9109;48.050;11.696;2023-03-14T17:25:30;1.97;;;0.80;;
17967;SDS011;9109;48.050;11.696;2023-03-14T17:28:34;0.77;;;0.63;;
17967;SDS011;9109;48.050;11.696;2023-03-14T17:31:36;3.50;;;0.93;;
17967;SDS011;9109;48.050;11.696;2023-03-14T17:34:41;1.77;;;0.70;;
17967;SDS011;9109;48.050;11.696;2023-03-14T17:37:43;0.93;;;0.63;;
17967;SDS011;9109;48.050;11.696;2023-03-14T17:40:45;2.00;;;0.63;;
17967;SDS011;9109;48.050;11.696;2023-03-14T17:43:52;1.50;;;0.70;;
17967;SDS011;9109;48.050;11.696;2023-03-14T17:46:56;4.20;;;0.90;;
17967;SDS011;9109;48.050;11.696;2023-03-14T17:49:58;1.60;;;0.73;;
17967;SDS011;9109;48.050;11.696;2023-03-14T17:56:50;6.30;;;0.70;;
17967;SDS011;9109;48.050;11.696;2023-03-14T17:59:53;1.90;;;0.90;;
17967;SDS011;9109;48.050;11.696;2023-03-14T18:02:55;0.63;;;0.53;;
17967;SDS011;9109;48.050;11.696;2023-03-14T18:05:58;5.90;;;0.60;;
17967;SDS011;9109;48.050;11.696;2023-03-14T18:09:06;5.00;;;1.03;;
17967;SDS011;9109;48.050;11.696;2023-03-14T18:12:08;3.03;;;1.10;;
17967;SDS011;9109;48.050;11.696;2023-03-14T18:15:12;2.67;;;0.90;;
17967;SDS011;9109;48.050;11.696;2023-03-14T18:21:53;1.67;;;0.70;;
17967;SDS011;9109;48.050;11.696;2023-03-14T18:25:01;4.17;;;0.70;;
17967;SDS011;9109;48.050;11.696;2023-03-14T18:28:15;3.83;;;0.90;;
17967;SDS011;9109;48.050;11.696;2023-03-14T18:31:30;1.43;;;0.70;;
17967;SDS011;9109;48.050;11.696;2023-03-14T18:34:39;5.97;;;1.27;;
17967;SDS011;9109;48.050;11.696;2023-03-14T18:37:58;1.67;;;0.80;;
17967;SDS011;9109;48.050;11.696;2023-03-14T18:41:15;2.13;;;0.70;;
17967;SDS011;9109;48.050;11.696;2023-03-14T18:44:35;2.63;;;1.00;;
17967;SDS011;9109;48.050;11.696;2023-03-14T19:07:38;2.83;;;0.83;;
17967;SDS011;9109;48.050;11.696;2023-03-14T19:22:43;2.33;;;0.80;;
17967;SDS011;9109;48.050;11.696;2023-03-14T19:25:45;4.40;;;0.90;;
17967;SDS011;9109;48.050;11.696;2023-03-14T19:28:47;2.13;;;1.00;;
17967;SDS011;9109;48.050;11.696;2023-03-14T19:31:49;1.00;;;0.70;;
17967;SDS011;9109;48.050;11.696;2023-03-14T19:34:50;4.03;;;1.20;;
17967;SDS011;9109;48.050;11.696;2023-03-14T19:37:57;3.60;;;0.93;;
17967;SDS011;9109;48.050;11.696;2023-03-14T19:40:59;2.03;;;0.67;;
17967;SDS011;9109;48.050;11.696;2023-03-14T19:44:01;4.80;;;1.00;;
17967;SDS011;9109;48.050;11.696;2023-03-14T19:47:03;3.90;;;0.83;;
17967;SDS011;9109;48.050;11.696;2023-03-14T19:50:05;3.40;;;0.90;;
17967;SDS011;9109;48.050;11.696;2023-03-14T19:53:09;2.77;;;0.83;;
17967;SDS011;9109;48.050;11.696;2023-03-14T19:56:11;4.60;;;1.13;;
17967;SDS011;9109;48.050;11.696;2023-03-14T19:59:14;4.13;;;1.00;;
17967;SDS011;9109;48.050;11.696;2023-03-14T20:02:16;2.30;;;1.10;;
17967;SDS011;9109;48.050;11.696;2023-03-14T20:05:18;2.97;;;1.20;;
17967;SDS011;9109;48.050;11.696;2023-03-14T20:08:23;2.10;;;0.80;;
17967;SDS011;9109;48.050;11.696;2023-03-14T20:11:25;3.97;;;1.30;;
17967;SDS011;9109;48.050;11.696;2023-03-14T20:14:27;3.67;;;0.90;;
17967;SDS011;9109;48.050;11.696;2023-03-14T20:17:29;14.97;;;1.30;;
17967;SDS011;9109;48.050;11.696;2023-03-14T20:20:31;2.63;;;1.10;;
17967;SDS011;9109;48.050;11.696;2023-03-14T20:23:36;3.10;;;1.30;;
17967;SDS011;9109;48.050;11.696;2023-03-14T20:26:38;6.03;;;1.03;;
17967;SDS011;9109;48.050;11.696;2023-03-14T20:29:40;5.00;;;1.57;;
17967;SDS011;9109;48.050;11.696;2023-03-14T20:34:48;4.27;;;1.37;;
17967;SDS011;9109;48.050;11.696;2023-03-14T21:08:59;6.30;;;1.40;;
17967;SDS011;9109;48.050;11.696;2023-03-14T21:14:31;3.27;;;1.17;;
17967;SDS011;9109;48.050;11.696;2023-03-14T21:25:32;4.03;;;1.40;;
17967;SDS011;9109;48.050;11.696;2023-03-14T21:29:24;3.13;;;1.00;;
17967;SDS011;9109;48.050;11.696;2023-03-14T21:40:48;1.93;;;0.97;;
17967;SDS011;9109;48.050;11.696;2023-03-14T21:44:57;2.40;;;1.00;;
17967;SDS011;9109;48.050;11.696;2023-03-14T21:52:41;2.07;;;1.03;;
17967;SDS011;9109;48.050;11.696;2023-03-14T21:56:11;0.80;;;0.63;;
17967;SDS011;9109;48.050;11.696;2023-03-14T21:59:50;3.47;;;1.10;;
17967;SDS011;9109;48.050;11.696;2023-03-14T22:03:26;1.47;;;0.87;;
17967;SDS011;9109;48.050;11.696;2023-03-14T22:06:50;1.57;;;0.80;;
17967;SDS011;9109;48.050;11.696;2023-03-14T22:18:11;5.23;;;1.00;;
17967;SDS011;9109;48.050;11.696;2023-03-14T22:21:52;2.03;;;1.00;;
17967;SDS011;9109;48.050;11.696;2023-03-14T22:25:21;2.00;;;0.77;;
17967;SDS011;9109;48.050;11.696;2023-03-14T22:28:59;1.87;;;0.90;;
17967;SDS011;9109;48.050;11.696;2023-03-14T22:32:36;3.37;;;1.10;;
17967;SDS011;9109;48.050;11.696;2023-03-14T22:40:07;6.83;;;1.20;;
17967;SDS011;9109;48.050;11.696;2023-03-14T22:51:34;8.47;;;1.20;;
17967;SDS011;9109;48.050;11.696;2023-03-14T23:02:42;1.83;;;0.80;;
17967;SDS011;9109;48.050;11.696;2023-03-14T23:06:29;8.90;;;1.33;;
17967;SDS011;9109;48.050;11.696;2023-03-14T23:09:55;1.80;;;1.00;;
17967;SDS011;9109;48.050;11.696;2023-03-14T23:12:59;4.63;;;1.00;;
17967;SDS011;9109;48.050;11.696;2023-03-14T23:16:12;3.13;;;1.10;;
17967;SDS011;9109;48.050;11.696;2023-03-14T23:19:17;4.63;;;1.17;;
17967;SDS011;9109;48.050;11.696;2023-03-14T23:22:24;5.03;;;1.20;;
17967;SDS011;9109;48.050;11.696;2023-03-14T23:25:32;3.93;;;1.30;;
17967;SDS011;9109;48.050;11.696;2023-03-14T23:28:37;6.83;;;1.50;;
17967;SDS011;9109;48.050;11.696;2023-03-14T23:31:50;2.33;;;0.97;;
17967;SDS011;9109;48.050;11.696;2023-03-14T23:35:00;1.83;;;0.83;;
17967;SDS011;9109;48.050;11.696;2023-03-14T23:38:07;2.43;;;0.90;;
17967;SDS011;9109;48.050;11.696;2023-03-14T23:41:13;3.90;;;1.23;;
17967;SDS011;9109;48.050;11.696;2023-03-14T23:44:17;2.10;;;0.97;;
17967;SDS011;9109;48.050;11.696;2023-03-14T23:47:24;5.70;;;1.00;;
17967;SDS011;9109;48.050;11.696;2023-03-14T23:50:35;3.00;;;0.83;;
17967;SDS011;9109;48.050;11.696;2023-03-14T23:53:40;2.87;;;1.30;;
17967;SDS011;9109;48.050;11.696;2023-03-14T23:56:47;2.83;;;0.80;;
17967;SDS011;9109;48.050;11.696;2023-03-14T23:59:51;2.70;;;1.07;;
